Date,TemperatureHighF,TemperatureAvgF,TemperatureLowF,DewpointHighF,DewpointAvgF,DewpointLowF,HumidityHigh,HumidityAvg,HumidityLow,PressureMaxIn,PressureMinIn,WindSpeedMaxMPH,WindSpeedAvgMPH,GustSpeedMaxMPH,PrecipitationSumIn
2014-1-1,67.8,48.3,34.2,50.0,36.5,26.0,85,65,44,30.21,29.87,9,0,0,0.00
2014-1-2,40.5,31.9,24.8,26.0,19.8,16.0,74,62,43,30.48,30.20,9,1,0,0.00
2014-1-3,50.8,38.8,28.4,27.0,23.6,20.0,74,56,37,30.47,30.04,10,0,0,0.00
2014-1-4,68.2,52.9,39.1,52.0,43.5,26.0,89,72,55,30.04,29.73,7,0,0,0.00
2014-1-5,57.3,32.6,20.6,51.0,20.5,8.0,80,62,49,30.55,29.75,13,3,0,0.00
2014-1-6,31.0,22.1,14.4,12.0,5.9,2.0,60,50,36,30.77,30.57,10,1,0,0.00
2014-1-7,46.9,34.1,23.0,18.0,13.5,11.0,65,45,28,30.61,30.30,5,0,0,0.00
2014-1-8,46.8,41.6,37.7,46.0,36.3,18.0,95,83,43,30.29,30.11,4,0,0,0.10
2014-1-9,46.8,43.3,39.5,46.0,41.9,38.0,96,95,93,30.21,29.98,6,0,0,0.01
2014-1-10,67.9,58.2,46.0,62.0,54.4,39.0,97,88,57,29.98,29.65,5,0,0,0.08
2014-1-11,67.2,52.7,42.3,42.0,34.9,30.0,84,55,25,30.10,29.80,5,0,0,0.00
2014-1-12,72.3,58.3,45.4,56.0,39.4,28.0,82,52,28,30.04,29.78,12,1,10,0.00
2014-1-13,62.5,55.6,44.6,57.0,35.0,22.0,87,49,26,30.06,29.77,9,1,0,0.00
2014-1-14,63.6,50.3,39.1,37.0,27.4,20.0,63,42,27,30.33,30.00,9,1,0,0.00
2014-1-15,56.6,44.1,34.7,27.0,24.2,20.0,60,46,32,30.40,30.09,3,0,0,0.00
2014-1-16,63.6,50.6,38.3,35.0,28.8,16.0,69,45,25,30.18,30.01,9,0,0,0.00
2014-1-17,53.9,47.2,40.3,22.0,17.1,15.0,44,31,23,30.37,30.18,6,0,0,0.00
2014-1-18,67.6,52.2,38.7,33.0,27.1,18.0,53,39,27,30.19,30.02,4,0,1,0.00
2014-1-19,64.3,51.3,39.5,31.0,28.2,26.0,62,42,27,30.29,30.05,0,0,0,0.00
2014-1-20,72.3,58.5,44.2,42.0,33.8,27.0,61,41,29,30.20,29.82,9,0,0,0.00
2014-1-21,53.0,43.1,38.1,27.0,18.3,12.0,46,37,27,30.43,30.17,7,1,0,0.00
2014-1-22,57.3,44.8,32.8,30.0,24.1,17.0,64,45,33,30.17,30.03,13,1,0,0.00
2014-1-23,44.1,32.9,23.6,24.0,10.7,-1.0,53,40,30,30.77,30.16,16,3,0,0.00
2014-1-24,41.4,28.9,18.8,15.0,5.5,-1.0,51,38,24,30.77,30.26,5,0,0,0.00
2014-1-25,66.1,47.3,30.5,36.0,26.9,15.0,65,47,32,30.25,29.98,6,0,0,0.00
2014-1-26,74.0,58.2,48.5,40.0,37.2,32.0,61,47,29,29.96,29.62,1,0,0,0.00
2014-1-27,51.9,36.5,24.4,39.0,9.6,-2.0,69,35,22,30.35,29.74,22,4,0,0.00
2014-1-28,34.5,26.8,22.0,15.0,6.8,-1.0,60,43,34,30.53,30.35,10,1,0,0.00
2014-1-29,46.5,33.1,20.9,18.0,14.0,12.0,78,49,26,30.49,30.20,4,0,0,0.00
2014-1-30,57.3,43.8,29.6,45.0,30.2,14.0,84,60,45,30.20,29.83,5,0,0,0.00
2014-1-31,74.5,63.0,49.0,59.0,53.4,45.0,89,73,48,29.87,29.73,9,0,0,0.00
2014-2-1,64.8,50.9,39.6,59.0,42.8,29.0,85,74,62,30.02,29.72,9,1,0,0.00
2014-2-2,38.8,32.7,29.0,31.0,28.2,25.0,90,84,69,30.28,30.00,14,2,0,0.20
2014-2-3,41.8,34.5,29.2,35.0,29.1,24.0,85,81,72,30.30,30.04,4,0,12,0.00
2014-2-4,45.9,40.9,37.7,41.0,37.4,33.0,94,87,78,30.12,29.88,9,0,0,0.20
2014-2-5,38.1,28.4,22.3,34.0,19.3,13.0,84,69,59,30.55,30.12,12,2,4,0.00
2014-2-6,24.0,20.3,15.9,18.0,13.8,9.0,83,76,67,30.62,30.44,11,0,0,0.01
2014-2-7,31.5,27.6,22.5,28.0,21.6,16.0,88,78,72,30.44,30.25,2,0,0,0.01
2014-2-8,52.1,39.8,31.2,41.0,35.2,28.0,93,84,66,30.25,30.01,4,0,0,0.00
2014-2-9,46.6,41.8,36.7,42.0,39.3,34.0,95,90,83,30.14,30.02,5,0,0,0.01
2014-2-10,36.8,32.5,29.9,35.0,30.5,28.0,93,92,91,30.29,30.13,9,1,0,0.02
2014-2-11,34.5,31.0,28.0,28.0,25.8,23.0,92,81,73,30.35,30.23,6,1,0,0.01
2014-2-12,50.0,38.8,30.7,33.0,28.1,25.0,81,67,47,30.25,30.05,6,0,0,0.00
2014-2-13,66.8,52.4,33.4,41.0,37.4,29.0,86,59,37,30.06,29.86,3,0,0,0.00
2014-2-14,69.5,55.6,43.1,41.0,35.4,26.0,83,51,21,30.08,29.72,13,1,0,0.00
2014-2-15,69.6,55.4,41.0,37.0,32.8,28.0,65,44,28,30.14,29.98,4,0,0,0.00
2014-2-16,74.4,61.2,49.2,59.0,51.0,37.0,89,70,51,30.04,29.85,10,0,0,0.00
2014-2-17,71.9,64.8,56.0,60.0,41.7,28.0,90,50,21,30.12,29.84,12,1,0,0.00
2014-2-18,80.7,65.4,50.7,60.0,46.0,29.0,80,51,36,30.08,29.81,13,0,0,0.00
2014-2-19,69.7,65.1,61.3,62.0,60.7,58.0,94,86,77,29.89,29.61,7,0,0,0.00
2014-2-20,71.0,63.3,49.2,63.0,46.7,28.0,83,58,32,30.09,29.59,13,2,0,0.00
2014-2-21,66.8,53.7,37.4,34.0,28.1,20.0,77,41,23,30.17,29.98,3,0,0,0.00
2014-2-22,75.2,62.5,51.1,53.0,42.4,26.0,73,48,38,30.01,29.79,3,0,0,0.00
2014-2-23,70.4,59.4,50.3,59.0,49.9,39.0,93,72,52,30.10,29.84,14,1,0,0.00
2014-2-24,56.1,50.5,44.1,46.0,41.6,38.0,80,72,64,30.17,30.03,5,0,0,0.00
2014-2-25,52.8,48.4,41.1,45.0,41.2,29.0,91,77,51,30.14,30.01,8,1,0,0.07
2014-2-26,42.0,36.5,30.6,33.0,19.9,14.0,71,52,40,30.33,30.14,12,2,0,0.01
2014-2-27,55.3,42.3,27.8,32.0,24.7,20.0,79,52,33,30.18,29.86,7,0,0,0.00
2014-2-28,82.4,58.9,42.0,54.0,42.5,31.0,83,59,21,29.87,29.64,6,0,0,0.00
2014-3-1,80.9,65.6,54.2,65.0,57.9,52.0,95,78,48,29.95,29.81,10,0,0,0.00
2014-3-2,69.6,31.0,19.7,64.0,26.7,14.0,92,84,71,30.36,29.90,12,2,7,0.02
2014-3-3,32.3,23.7,15.6,19.0,14.2,9.0,78,68,56,30.50,30.33,10,1,0,0.04
2014-3-4,50.5,35.6,26.2,32.0,24.8,18.0,80,66,45,30.35,30.03,5,0,1,0.02
2014-3-5,53.7,44.0,33.4,35.0,32.1,30.0,86,65,47,30.18,29.96,5,0,0,0.01
2014-3-6,54.6,45.2,39.9,39.0,36.8,34.0,86,73,54,30.25,30.06,6,0,0,0.00
2014-3-7,65.7,51.7,39.3,45.0,39.8,35.0,86,66,42,30.05,29.83,9,0,0,0.00
2014-3-8,54.1,48.0,38.8,51.0,42.3,34.0,88,80,72,30.31,29.86,16,1,0,0.01
2014-3-9,62.1,47.9,37.1,44.0,38.3,33.0,85,71,51,30.35,30.18,7,0,0,0.00
2014-3-10,78.1,61.0,44.8,56.0,46.4,42.0,90,63,31,30.18,29.84,5,0,0,0.00
2014-3-11,81.0,67.4,56.7,59.0,55.3,40.0,90,68,42,29.83,29.48,5,0,0,0.00
2014-3-12,60.1,53.0,45.0,39.0,29.0,23.0,64,42,25,30.27,29.80,15,3,0,0.00
2014-3-13,69.3,55.0,38.0,33.0,29.7,25.0,71,41,24,30.32,30.05,2,0,0,0.00
2014-3-14,71.7,59.8,47.1,54.0,46.0,33.0,81,61,41,30.05,29.92,11,0,0,0.00
2014-3-15,66.0,60.5,54.7,62.0,56.8,53.0,93,88,73,29.95,29.65,3,0,0,1.19
2014-3-16,55.1,47.0,40.6,53.0,41.0,32.0,94,80,68,30.07,29.73,25,4,0,0.00
2014-3-17,62.6,48.7,36.7,34.0,29.4,24.0,75,51,25,30.05,29.71,5,0,0,0.00
2014-3-18,82.6,63.6,47.6,51.0,41.4,33.0,68,47,26,29.85,29.55,11,1,0,0.00
2014-3-19,65.9,55.7,45.3,38.0,34.3,30.0,61,46,29,30.19,29.86,7,1,0,0.00
2014-3-20,73.9,58.9,41.9,37.0,34.5,32.0,76,43,24,30.22,29.99,7,0,0,0.00
2014-3-21,81.4,66.4,51.7,60.0,49.4,33.0,74,55,38,29.98,29.77,4,0,0,0.00
2014-3-22,67.3,60.0,51.4,59.0,50.1,42.0,89,71,54,30.09,29.88,5,0,0,0.00
2014-3-23,57.3,51.3,45.3,48.0,34.4,27.0,87,54,42,30.35,30.09,16,2,0,0.00
2014-3-24,67.0,54.3,41.6,42.0,34.8,28.0,69,49,38,30.25,30.01,6,0,0,0.00
2014-3-25,62.2,52.8,42.1,38.0,30.0,25.0,64,44,29,30.39,30.14,11,2,0,0.00
2014-3-26,60.4,52.7,46.4,51.0,38.8,29.0,76,60,45,30.20,29.91,11,1,0,0.02
2014-3-27,81.0,66.9,57.0,67.0,60.4,51.0,94,80,60,29.90,29.63,7,0,0,0.05
2014-3-28,83.1,68.5,54.1,67.0,60.5,42.0,93,77,48,30.03,29.69,10,0,0,0.03
2014-3-29,73.6,59.8,45.9,44.0,39.2,33.0,79,51,25,30.27,30.04,6,0,0,0.00
2014-3-30,78.1,65.5,53.0,48.0,40.9,34.0,56,42,29,30.20,29.94,6,0,0,0.00
2014-3-31,81.0,68.2,56.6,60.0,55.2,46.0,83,64,48,29.95,29.80,9,1,0,0.00
2014-4-1,83.1,72.5,64.8,66.0,62.7,59.0,86,72,52,29.95,29.80,4,0,0,0.00
2014-4-2,81.9,74.2,69.3,71.0,67.3,65.0,88,80,64,29.82,29.65,9,0,0,0.00
2014-4-3,83.6,75.7,64.9,69.0,67.5,49.0,84,76,55,29.80,29.57,7,0,0,0.00
2014-4-4,65.9,56.6,46.0,46.0,35.8,31.0,65,47,31,30.17,29.82,14,2,0,0.00
2014-4-5,55.2,52.7,50.6,46.0,38.7,32.0,83,60,47,30.14,29.94,4,0,0,0.06
2014-4-6,51.1,48.7,45.8,49.0,45.4,42.0,93,88,71,29.96,29.76,9,2,9,0.57
2014-4-7,67.9,55.1,47.2,50.0,48.1,45.0,95,79,51,29.99,29.79,14,0,0,0.02
2014-4-8,69.5,58.8,49.9,48.0,40.1,35.0,84,54,28,30.15,29.98,19,3,0,0.00
2014-4-9,81.6,65.0,46.7,49.0,44.3,39.0,85,51,29,30.21,29.98,8,0,0,0.00
2014-4-10,85.8,72.5,59.0,58.0,54.1,48.0,79,54,35,29.98,29.81,9,0,0,0.00
2014-4-11,83.1,71.7,62.6,64.0,60.1,54.0,84,68,51,29.98,29.85,8,0,0,0.00
2014-4-12,84.1,73.8,66.0,64.0,61.8,60.0,82,67,50,29.90,29.71,10,1,0,0.00
2014-4-13,78.7,69.9,65.2,69.0,65.0,61.0,94,84,68,29.77,29.53,15,1,0,0.37
2014-4-14,72.4,49.9,44.1,68.0,38.9,30.0,87,67,48,30.25,29.64,17,3,0,0.00
2014-4-15,64.6,51.3,37.1,33.0,27.2,22.0,76,43,21,30.33,30.11,3,0,0,0.00
2014-4-16,68.1,55.9,42.8,44.0,38.0,33.0,72,53,37,30.12,29.93,6,1,0,0.00
2014-4-17,63.8,57.8,50.5,55.0,49.7,41.0,86,75,58,30.19,30.01,6,0,0,0.03
2014-4-18,77.5,65.3,56.2,54.0,51.0,47.0,90,63,36,30.22,30.08,7,0,0,0.03
2014-4-19,79.6,68.7,58.1,58.0,53.5,49.0,80,60,44,30.17,30.04,3,0,0,0.00
2014-4-20,80.9,69.1,62.4,62.0,57.3,53.0,93,68,41,30.10,29.99,6,0,2,0.70
2014-4-21,82.4,69.9,61.4,71.0,63.9,59.0,94,82,61,30.05,29.87,6,0,0,0.08
2014-4-22,85.4,72.7,61.8,64.0,59.7,55.0,94,67,38,30.04,29.88,6,0,0,0.00
2014-4-23,87.7,75.3,63.3,65.0,60.8,57.0,82,62,43,29.91,29.68,5,0,0,0.00
2014-4-24,82.9,74.2,66.5,66.0,57.6,45.0,85,60,33,29.92,29.71,10,1,0,0.00
2014-4-25,83.9,71.8,59.2,46.0,43.4,38.0,53,37,25,30.03,29.84,10,0,0,0.00
2014-4-26,83.5,72.9,61.5,70.0,60.9,43.0,84,67,38,29.85,29.60,9,0,0,0.00
2014-4-27,91.4,79.8,71.9,73.0,61.5,41.0,91,60,22,29.60,29.34,7,0,0,0.16
2014-4-28,83.5,74.4,64.6,47.0,42.2,35.0,46,32,21,29.66,29.45,6,0,0,0.00
2014-4-29,74.3,66.4,57.9,48.0,40.2,37.0,52,39,26,29.93,29.60,15,2,0,0.00
2014-4-30,66.1,57.9,50.3,41.0,37.1,32.0,62,48,29,30.15,29.93,12,1,0,0.00
2014-5-1,73.0,60.6,45.0,42.0,37.7,33.0,85,47,25,30.16,30.00,9,0,0,0.00
2014-5-2,81.5,67.3,52.1,44.0,39.0,33.0,72,39,19,30.03,29.87,6,0,0,0.00
2014-5-3,90.9,73.4,52.9,49.0,42.9,35.0,76,37,18,30.01,29.92,4,0,0,0.00
2014-5-4,93.8,78.3,61.8,52.0,47.4,44.0,53,36,20,29.99,29.86,10,0,0,0.00
2014-5-5,89.2,76.9,62.9,62.0,54.6,42.0,66,47,37,29.90,29.71,7,0,0,0.00
2014-5-6,86.4,76.3,64.3,67.0,62.2,58.0,85,63,50,29.77,29.64,10,1,0,0.00
2014-5-7,82.9,75.5,68.9,68.0,65.3,62.0,83,71,59,29.80,29.69,7,1,0,0.00
2014-5-8,75.1,17.1,73.7,67.0,-61.6,-99.9,78,18,75,29.86,29.71,5,-770,0,0.00
2014-5-13,67.5,39.5,57.3,51.0,-7.6,-99.9,70,37,55,30.22,30.11,12,-381,0,0.00
2014-5-14,71.0,23.8,64.5,47.0,-50.5,-99.9,52,14,32,30.25,30.13,5,-651,0,0.00
2014-5-15,83.0,27.2,73.6,47.0,-51.9,-99.9,39,9,21,30.21,30.02,5,-659,0,0.00
2014-5-16,85.9,28.5,75.4,57.0,-46.6,-99.9,47,13,29,30.09,29.82,7,-652,0,0.00
2014-5-17,82.9,28.2,78.3,62.0,-44.7,-99.9,53,16,42,29.97,29.82,2,-652,0,0.00
2014-5-18,82.8,29.5,77.2,62.0,-41.0,-99.9,60,19,47,30.05,29.92,6,-634,0,0.00
2014-5-19,85.2,28.7,78.5,65.0,-43.1,-99.9,58,18,49,30.00,29.86,13,-651,0,0.00
2014-5-20,87.1,27.1,81.5,65.0,-47.6,-99.9,56,16,46,29.99,29.89,13,-680,0,0.00
2014-5-21,87.3,43.1,75.3,67.0,-13.9,-99.9,68,29,48,30.03,29.91,6,-478,0,0.00
2014-5-22,87.0,77.6,67.7,68.0,65.9,64.0,88,68,52,30.08,29.93,9,0,0,0.00
2014-5-23,82.2,76.1,71.0,68.0,66.6,65.0,82,73,61,30.05,29.95,6,0,0,0.00
2014-5-24,86.1,78.0,71.7,69.0,67.0,65.0,81,70,55,30.02,29.91,4,0,0,0.00
2014-5-25,85.9,76.4,72.5,71.0,68.6,66.0,90,77,57,29.98,29.86,11,0,0,0.04
2014-5-26,79.4,74.6,69.6,70.0,67.1,63.0,92,78,64,30.02,29.89,4,0,0,0.04
2014-5-27,79.8,70.6,65.1,70.0,65.0,63.0,94,83,60,29.95,29.80,7,0,1,0.24
2014-5-28,83.9,74.7,66.0,67.0,64.7,62.0,95,73,49,29.90,29.80,5,0,0,0.00
2014-5-29,89.0,78.7,67.5,68.0,66.0,64.0,90,67,47,29.87,29.75,6,0,0,0.00
2014-5-30,87.1,77.5,69.6,70.0,67.6,66.0,89,72,51,29.86,29.77,3,0,0,0.00
2014-5-31,86.4,76.9,71.3,75.0,70.2,68.0,90,80,59,29.92,29.83,6,0,0,0.02
2014-6-1,90.6,80.9,71.2,73.0,70.4,68.0,92,72,51,29.93,29.78,9,0,1,0.00
2014-6-2,91.5,81.5,74.2,73.0,70.7,70.0,87,71,50,29.98,29.80,10,0,0,0.00
2014-6-3,90.3,82.5,74.2,74.0,71.5,70.0,90,71,56,29.98,29.83,12,0,0,0.00
2014-6-4,91.7,83.6,75.3,74.0,71.7,70.0,87,69,54,29.84,29.72,7,0,0,0.00
2014-6-5,89.0,81.8,73.9,74.0,72.0,70.0,87,73,59,29.82,29.72,7,0,0,0.00
2014-6-6,91.3,82.8,74.5,74.0,71.6,70.0,88,70,52,29.91,29.75,3,0,0,0.00
2014-6-7,95.0,85.1,75.0,72.0,71.1,69.0,84,64,46,29.89,29.78,4,0,0,0.00
2014-6-8,88.2,80.2,69.9,75.0,70.9,67.0,91,74,57,29.96,29.73,9,0,0,0.22
2014-6-9,78.4,71.9,63.7,75.0,66.5,61.0,94,83,66,29.81,29.69,6,0,0,0.68
2014-6-10,84.4,74.9,65.8,64.0,61.1,58.0,77,63,49,29.83,29.72,9,1,0,0.00
2014-6-11,94.0,80.5,65.7,69.0,65.4,62.0,91,63,40,29.87,29.71,1,0,0,0.00
2014-6-12,84.7,78.0,70.7,72.0,69.7,66.0,89,76,61,29.93,29.68,9,0,0,0.03
2014-6-13,88.8,81.1,73.1,72.0,69.8,67.0,87,69,54,29.97,29.84,5,0,0,0.00
2014-6-14,90.5,81.9,73.2,75.0,71.7,69.0,88,72,55,29.88,29.74,6,0,0,0.00
2014-6-15,92.2,83.5,75.6,74.0,71.7,70.0,85,69,53,29.90,29.75,7,0,0,0.00
2014-6-16,94.1,83.8,75.6,74.0,72.4,70.0,89,70,50,29.98,29.85,9,0,0,0.00
2014-6-17,93.7,84.5,76.5,75.0,72.4,71.0,86,68,49,29.97,29.84,9,0,0,0.00
2014-6-18,93.7,82.7,75.8,75.0,72.1,70.0,87,71,50,29.95,29.85,12,1,0,0.00
2014-6-19,94.1,83.1,75.4,75.0,72.1,70.0,88,71,49,30.01,29.91,11,1,0,0.00
2014-6-20,94.4,84.8,76.2,73.0,70.3,65.0,84,63,39,30.05,29.94,2,0,0,0.00
2014-6-21,91.0,82.9,77.6,73.0,71.2,69.0,81,68,52,30.00,29.86,4,0,0,0.00
2014-6-22,80.1,74.8,69.7,72.0,70.5,67.0,93,86,76,29.95,29.79,3,0,7,0.63
2014-6-23,87.5,76.9,67.8,72.0,69.8,66.0,94,80,55,29.93,29.78,3,0,0,0.83
2014-6-24,92.2,78.0,70.3,75.0,70.2,67.0,92,78,56,30.00,29.91,6,0,0,0.12
2014-6-25,83.8,74.1,69.7,75.0,71.0,67.0,94,90,74,30.03,29.91,4,0,0,0.65
2014-6-26,90.1,78.8,71.0,74.0,71.7,69.0,95,80,56,29.99,29.81,4,0,6,0.00
2014-6-27,90.9,80.1,73.3,76.0,72.3,69.0,90,78,59,29.88,29.74,9,1,0,0.00
2014-6-28,89.0,81.7,76.2,77.0,74.2,73.0,92,78,62,29.88,29.79,12,1,0,0.04
2014-6-29,93.4,85.5,79.0,76.0,74.4,73.0,87,70,55,29.97,29.86,3,0,0,0.00
2014-6-30,95.3,85.4,76.7,74.0,71.9,69.0,83,66,45,29.94,29.79,11,1,0,0.00
2014-7-1,94.5,84.7,74.7,74.0,72.1,70.0,87,67,47,29.95,29.79,5,0,0,0.00
2014-7-2,95.8,84.7,77.1,73.0,70.6,66.0,80,64,39,30.05,29.90,8,0,0,0.00
2014-7-3,87.8,79.3,69.3,72.0,68.0,64.0,88,69,53,30.16,30.02,6,0,0,0.02
2014-7-4,92.8,82.8,74.5,74.0,70.3,68.0,83,67,50,30.18,30.07,6,0,0,0.00
2014-7-5,93.1,83.1,73.3,74.0,71.3,69.0,86,69,51,30.15,30.00,7,0,0,0.00
2014-7-6,95.2,84.6,74.0,73.0,70.5,68.0,86,64,44,30.02,29.89,3,0,0,0.00
2014-7-7,97.5,86.3,75.3,73.0,70.5,67.0,85,61,43,29.95,29.84,5,0,0,0.00
2014-7-8,97.9,87.8,77.6,75.0,70.9,67.0,79,59,39,29.97,29.86,4,0,0,0.00
2014-7-9,97.6,87.7,77.8,73.0,69.1,65.0,73,55,39,30.01,29.87,1,0,0,0.00
2014-7-10,97.4,87.8,79.3,72.0,67.9,64.0,71,53,35,30.01,29.88,7,0,0,0.00
2014-7-11,95.9,86.7,75.7,70.0,66.5,61.0,72,53,36,30.08,29.98,5,0,0,0.00
2014-7-12,98.3,87.5,75.4,70.0,67.4,61.0,75,53,34,30.13,29.98,6,0,0,0.00
2014-7-13,100.6,89.4,78.2,74.0,69.7,68.0,74,54,37,30.05,29.90,3,0,0,0.00
2014-7-14,100.9,85.3,76.4,76.0,71.1,68.0,89,64,38,29.96,29.85,7,0,0,0.16
2014-7-15,91.4,82.6,75.7,73.0,62.6,50.0,88,55,28,30.02,29.90,7,1,0,0.00
2014-7-16,91.0,79.5,69.7,72.0,63.6,54.0,78,59,45,30.00,29.82,6,0,0,0.03
2014-7-17,79.7,72.2,66.6,72.0,67.9,65.0,94,87,68,29.94,29.84,8,1,0,0.50
2014-7-18,76.9,69.4,64.1,67.0,63.8,62.0,93,83,69,29.99,29.91,5,0,0,0.00
2014-7-19,76.9,71.4,67.1,66.0,64.7,63.0,89,80,67,30.02,29.95,2,0,0,0.00
2014-7-20,90.8,78.5,65.9,75.0,69.6,64.0,94,75,58,30.02,29.89,1,0,0,0.00
2014-7-21,97.2,84.5,73.0,78.0,72.7,70.0,90,70,45,30.02,29.90,4,0,0,0.00
2014-7-22,96.0,86.3,76.3,78.0,73.3,70.0,86,67,47,30.04,29.96,4,0,0,0.00
2014-7-23,95.3,84.6,72.6,73.0,71.0,68.0,89,65,48,30.07,29.94,7,0,0,0.23
2014-7-24,94.1,82.7,72.0,73.0,69.7,66.0,91,68,41,30.03,29.89,2,0,0,0.00
2014-7-25,100.2,87.1,74.2,75.0,72.2,69.0,90,64,36,29.97,29.84,5,0,0,0.00
2014-7-26,101.8,89.9,77.8,75.0,71.6,68.0,80,57,34,29.96,29.83,10,0,0,0.00
2014-7-27,103.5,90.7,79.3,73.0,71.3,69.0,77,55,35,29.99,29.89,11,0,7,0.00
2014-7-28,94.2,87.0,81.0,77.0,70.0,63.0,73,58,43,30.08,29.95,6,0,0,0.00
2014-7-29,86.4,79.7,75.2,69.0,65.1,61.0,75,61,51,30.11,30.00,3,0,0,0.00
2014-7-30,88.4,79.8,74.7,74.0,70.8,66.0,92,74,61,30.04,29.85,9,1,0,0.15
2014-7-31,83.7,74.8,70.1,75.0,69.6,66.0,93,84,66,30.00,29.86,6,0,0,0.02
2014-8-1,78.0,72.5,68.8,69.0,67.2,66.0,93,83,71,30.03,29.96,4,0,0,0.02
2014-8-2,87.2,77.1,67.6,70.0,67.4,65.0,93,74,53,30.07,29.97,5,0,0,0.00
2014-8-3,90.4,81.4,71.7,70.0,68.9,68.0,88,67,49,30.06,29.94,9,1,0,0.00
2014-8-4,91.4,83.1,74.6,73.0,69.7,66.0,86,66,46,30.04,29.93,6,0,0,0.00
2014-8-5,96.5,83.7,73.9,76.0,71.8,69.0,93,70,43,30.04,29.92,10,0,0,1.70
2014-8-6,98.4,86.8,76.3,75.0,72.3,69.0,87,64,41,29.99,29.84,7,0,0,0.00
2014-8-7,97.9,88.3,77.0,76.0,72.7,70.0,81,61,41,29.89,29.73,3,0,0,0.00
2014-8-8,103.6,90.1,80.5,75.0,72.5,69.0,77,58,37,29.89,29.78,9,0,0,0.00
2014-8-9,101.6,90.0,77.9,75.0,71.7,68.0,82,57,36,29.93,29.82,9,0,0,0.00
2014-8-10,102.1,88.2,79.0,75.0,71.7,68.0,79,60,38,29.98,29.86,4,0,0,0.00
2014-8-11,95.1,86.8,80.1,72.0,69.3,65.0,72,57,39,30.02,29.92,5,0,10,0.00
2014-8-12,91.5,84.3,78.0,71.0,63.8,56.0,78,52,33,30.05,29.95,11,0,0,0.00
2014-8-13,93.7,82.4,71.8,64.0,61.6,60.0,70,51,33,30.07,29.94,2,0,0,0.00
2014-8-14,94.2,83.4,71.5,67.0,64.3,62.0,75,54,39,30.04,29.90,4,0,0,0.00
2014-8-15,98.6,86.0,72.8,72.0,67.8,64.0,76,56,37,29.98,29.79,7,0,0,0.00
2014-8-16,100.0,83.5,76.0,75.0,72.6,67.0,90,71,41,29.89,29.80,4,0,0,0.22
2014-8-17,85.3,75.8,71.1,76.0,71.2,69.0,94,84,71,29.98,29.85,6,0,10,0.48
2014-8-18,90.1,82.1,73.6,77.0,73.8,69.0,93,76,62,29.93,29.80,0,0,0,0.00
2014-8-19,95.2,85.7,76.5,76.0,71.3,67.0,82,64,42,29.90,29.78,3,0,0,0.00
2014-8-20,96.9,86.4,77.8,75.0,71.8,69.0,83,64,41,29.93,29.83,7,0,0,0.00
2014-8-21,98.6,88.0,77.9,76.0,71.9,65.0,85,62,37,29.99,29.88,5,0,0,0.00
2014-8-22,101.0,89.2,79.0,75.0,70.6,64.0,83,57,32,30.00,29.87,5,0,0,0.00
2014-8-23,99.7,89.2,78.5,71.0,68.3,64.0,73,52,33,29.96,29.82,6,0,0,0.00
2014-8-24,99.8,89.1,77.2,73.0,69.6,66.0,75,54,36,29.91,29.79,4,0,7,0.00
2014-8-25,100.1,89.5,76.9,74.0,70.3,68.0,79,55,37,29.93,29.82,5,0,0,0.00
2014-8-26,96.0,88.0,79.0,76.0,71.8,69.0,77,60,44,30.00,29.89,8,0,0,0.00
2014-8-27,94.6,86.3,77.3,73.0,69.6,63.0,81,59,44,30.02,29.89,6,0,0,0.00
2014-8-28,95.7,85.5,74.9,72.0,67.7,63.0,75,56,39,29.94,29.77,6,0,0,0.00
2014-8-29,94.6,82.1,70.9,73.0,70.1,65.0,90,68,45,29.89,29.79,5,0,0,0.05
2014-8-30,94.5,83.2,74.5,74.0,71.8,70.0,89,70,45,29.93,29.81,5,0,0,0.00
2014-8-31,93.9,84.8,74.8,76.0,72.6,70.0,90,68,49,29.93,29.80,10,0,0,0.00
2014-9-1,95.8,85.8,76.6,75.0,72.2,70.0,85,65,47,29.88,29.78,5,0,0,0.00
2014-9-2,96.5,86.5,77.9,76.0,72.9,71.0,83,65,45,29.95,29.82,9,0,0,0.00
2014-9-3,97.0,86.3,77.3,75.0,72.2,69.0,85,65,44,29.96,29.85,6,0,0,0.00
2014-9-4,96.7,86.9,77.9,75.0,71.4,69.0,80,61,43,30.00,29.89,4,0,0,0.00
2014-9-5,97.2,86.5,75.7,75.0,70.2,67.0,83,60,39,30.05,29.91,3,0,0,0.00
2014-9-6,96.3,83.7,75.1,75.0,71.0,68.0,84,67,42,30.04,29.91,7,0,0,0.00
2014-9-7,85.8,78.1,71.7,72.0,69.2,66.0,84,74,60,30.06,29.93,3,0,0,0.00
2014-9-8,93.6,83.2,72.9,74.0,71.4,69.0,91,69,49,30.00,29.86,6,0,7,0.00
2014-9-9,97.3,86.7,76.2,74.0,71.0,69.0,83,61,42,29.93,29.74,6,0,0,0.00
2014-9-10,100.3,88.8,78.0,75.0,71.4,69.0,77,58,40,29.78,29.68,5,0,0,0.00
2014-9-11,86.8,81.4,72.4,74.0,71.5,68.0,85,72,57,29.97,29.78,7,0,0,0.00
2014-9-12,72.4,67.4,59.0,70.0,63.9,55.0,93,88,84,30.20,29.96,9,1,0,0.07
2014-9-13,69.5,62.2,55.6,59.0,55.5,52.0,88,79,68,30.27,30.16,5,0,0,0.00
2014-9-14,79.5,69.7,62.1,66.0,62.6,58.0,93,79,63,30.22,30.09,0,0,0,0.01
2014-9-15,84.3,77.1,70.3,72.0,68.4,65.0,86,75,61,30.12,30.04,0,0,0,0.00
2014-9-16,91.2,82.2,74.7,73.0,70.4,68.0,87,69,48,30.08,29.92,1,0,0,0.00
2014-9-17,93.7,82.4,73.8,74.0,71.2,67.0,90,70,49,29.97,29.81,5,0,0,0.00
2014-9-18,87.7,79.4,73.9,75.0,71.6,65.0,91,77,63,29.89,29.79,5,0,0,0.00
2014-9-19,87.5,77.8,69.2,72.0,69.0,65.0,92,75,56,29.94,29.84,5,0,0,0.00
2014-9-20,92.3,81.6,72.6,73.0,68.3,63.0,90,67,39,29.98,29.88,6,0,0,0.00
2014-9-21,93.7,82.8,70.1,71.0,66.6,62.0,86,60,36,30.06,29.94,2,0,0,0.00
2014-9-22,86.2,78.2,71.5,70.0,58.0,52.0,75,52,32,30.16,30.05,11,1,0,0.00
2014-9-23,83.8,73.1,63.2,57.0,53.6,48.0,72,52,32,30.17,30.03,1,0,0,0.00
2014-9-24,86.3,73.9,60.3,55.0,52.2,48.0,76,50,28,30.17,30.05,4,0,0,0.00
2014-9-25,85.9,75.3,63.4,61.0,57.4,55.0,80,56,37,30.16,30.04,2,0,0,0.00
2014-9-26,87.7,76.9,65.6,66.0,59.7,56.0,83,57,40,30.10,29.98,0,0,0,0.00
2014-9-27,85.9,76.9,67.9,66.0,61.9,59.0,80,61,44,30.05,29.93,5,0,0,0.00
2014-9-28,87.1,77.7,67.3,67.0,63.4,61.0,86,63,43,30.04,29.94,5,0,0,0.00
2014-9-29,87.7,77.9,68.0,67.0,63.8,61.0,79,63,45,29.99,29.85,2,0,0,0.00
2014-9-30,90.8,80.3,70.1,72.0,67.9,65.0,86,67,47,29.87,29.70,3,0,0,0.00
2014-10-1,92.0,81.7,72.4,73.0,69.9,68.0,91,69,49,29.79,29.68,5,0,0,0.00
2014-10-2,92.4,78.4,70.0,75.0,68.7,56.0,86,70,53,29.92,29.60,6,0,0,0.00
2014-10-3,79.2,69.1,59.0,57.0,52.3,45.0,84,57,37,30.20,29.92,5,0,0,0.00
2014-10-4,78.7,65.3,48.6,46.0,40.5,36.0,81,43,25,30.21,29.94,3,0,0,0.00
2014-10-5,84.6,71.7,58.7,65.0,56.7,43.0,78,60,47,29.93,29.77,9,0,11,0.00
2014-10-6,75.5,69.7,64.2,67.0,63.6,60.0,91,81,67,29.88,29.79,7,0,0,0.30
2014-10-7,70.6,70.1,68.9,65.2,64.5,64.1,88,82,80,29.84,29.81,0,0,0,0.00
2014-10-8,79.4,78.3,77.2,71.0,70.0,69.0,80,76,71,29.93,29.92,6,1,14,0.00
2014-10-9,90.5,80.7,74.7,73.0,70.8,68.0,88,73,51,29.95,29.79,6,0,0,0.00
2014-10-10,91.8,79.7,64.8,71.0,66.1,62.0,90,63,44,29.91,29.77,13,0,0,0.18
2014-10-11,65.5,59.7,56.9,64.0,55.9,52.0,94,87,80,30.07,29.85,6,0,0,0.17
2014-10-12,72.4,62.5,52.4,69.0,57.3,50.0,94,83,68,30.02,29.62,4,0,0,0.17
2014-10-13,74.3,62.1,58.6,71.0,55.9,49.0,95,80,66,29.94,29.53,16,2,0,0.29
2014-10-14,75.3,62.9,53.2,49.0,44.6,40.0,72,54,29,30.09,29.93,12,0,0,0.29
2014-10-15,84.3,67.0,51.4,52.0,48.8,47.0,87,56,28,30.08,29.94,0,0,0,0.00
2014-10-16,88.4,72.6,56.3,55.0,51.0,49.0,78,50,28,29.94,29.77,3,0,0,0.00
2014-10-17,86.9,72.9,59.0,60.0,55.9,50.0,84,57,37,29.94,29.77,5,0,0,0.00
2014-10-18,79.8,70.6,62.6,61.0,56.6,51.0,73,62,52,30.08,29.94,8,1,0,0.00
2014-10-19,76.3,65.2,58.2,59.0,54.2,52.0,82,66,54,30.15,30.02,3,0,0,0.00
2014-10-20,82.6,69.5,58.2,64.0,58.5,53.0,86,69,51,30.08,29.97,4,0,0,0.00
2014-10-21,81.8,70.2,59.0,64.0,59.5,56.0,91,71,50,30.09,29.98,4,0,0,0.00
2014-10-22,78.9,70.7,62.8,65.0,60.4,55.0,90,71,54,30.13,30.02,3,0,0,0.00
2014-10-23,79.1,69.3,62.1,60.0,57.0,54.0,81,66,51,30.13,30.03,1,0,0,0.00
2014-10-24,84.4,71.1,60.4,64.0,59.5,56.0,85,68,51,30.15,30.02,1,0,0,0.00
2014-10-25,89.3,74.9,62.5,66.0,61.8,58.0,85,65,44,30.11,30.00,1,0,0,0.00
2014-10-26,87.5,75.8,65.2,64.0,60.4,56.0,83,61,39,30.00,29.82,6,0,0,0.00
2014-10-27,83.7,74.5,65.3,64.0,60.8,56.0,85,64,45,29.84,29.73,9,0,0,0.00
2014-10-28,77.5,72.1,67.6,65.0,61.8,52.0,85,71,54,30.08,29.79,6,0,0,0.00
2014-10-29,75.8,65.9,57.1,54.0,48.8,45.0,77,56,35,30.20,30.08,5,0,0,0.00
2014-10-30,77.8,64.9,55.0,62.0,52.5,46.0,84,66,44,30.15,30.03,6,0,0,0.00
2014-10-31,64.7,59.8,50.8,55.0,42.7,32.0,71,54,44,30.35,30.13,5,0,0,0.00
2014-11-1,59.9,50.1,40.8,34.0,31.6,28.0,71,51,35,30.44,30.28,6,0,0,0.00
2014-11-2,65.8,54.6,44.6,47.0,40.4,33.0,71,59,48,30.35,30.17,12,1,0,0.00
2014-11-3,74.3,64.6,54.3,61.0,55.0,46.0,85,72,59,30.18,30.05,9,0,12,0.00
2014-11-4,68.1,60.5,53.1,63.0,57.4,51.0,93,89,77,30.20,30.02,11,0,0,1.03
2014-11-5,57.3,54.3,51.8,56.0,52.5,50.0,94,93,93,30.24,30.14,1,0,0,0.13
2014-11-6,71.1,58.2,46.2,52.0,44.8,35.0,93,65,37,30.34,30.23,3,0,0,0.14
2014-11-7,67.7,55.7,44.0,44.0,39.2,34.0,77,55,40,30.29,30.01,7,0,0,0.00
2014-11-8,68.6,57.7,48.2,47.0,41.5,37.0,84,58,33,30.16,29.99,10,0,0,0.00
2014-11-9,73.4,57.3,41.5,45.0,41.8,38.0,90,59,35,30.14,29.83,2,0,0,0.00
2014-11-10,78.7,65.2,51.8,57.0,50.5,44.0,76,61,43,29.82,29.58,13,1,0,0.00
2014-11-11,65.2,45.3,38.4,59.0,31.7,25.0,80,60,48,30.25,29.65,18,2,0,0.00
2014-11-12,39.1,35.0,31.5,25.0,19.1,14.0,59,53,45,30.51,30.26,10,1,0,0.00
2014-11-13,37.4,32.4,29.4,16.0,11.2,9.0,52,42,34,30.62,30.49,7,1,0,0.00
2014-11-14,40.1,34.9,28.9,21.0,17.1,13.0,55,49,38,30.50,30.30,1,0,0,0.00
2014-11-15,44.6,40.9,38.2,40.0,30.8,21.0,97,69,50,30.30,30.05,4,0,0,0.02
2014-11-16,40.4,37.0,28.7,39.0,33.9,24.0,94,88,76,30.28,29.99,11,1,0,0.02
2014-11-17,43.0,33.3,25.2,25.0,21.0,19.0,84,63,39,30.46,30.28,6,0,0,0.02
2014-11-18,56.2,41.2,27.2,25.0,22.4,20.0,83,51,27,30.50,30.30,4,0,0,0.00
2014-11-19,64.8,50.0,34.4,42.0,32.4,20.0,77,52,40,30.30,30.11,2,0,0,0.00
2014-11-20,71.3,58.0,43.2,58.0,48.9,40.0,92,74,47,30.12,29.96,4,0,0,0.00
2014-11-21,66.5,62.4,59.0,62.0,59.4,56.0,94,90,85,30.11,30.01,6,1,0,0.00
2014-11-22,62.9,59.9,57.1,60.0,57.6,56.0,95,92,84,30.07,29.66,12,2,0,0.50
2014-11-23,76.5,61.2,49.2,59.0,50.1,39.0,95,71,29,29.80,29.35,15,2,0,0.50
2014-11-24,59.3,49.4,40.5,39.0,33.8,28.0,77,58,31,30.16,29.81,5,0,0,0.00
2014-11-25,61.7,49.2,38.0,37.0,33.2,30.0,84,57,31,30.30,30.10,7,0,0,0.00
2014-11-26,64.0,53.2,44.9,38.0,33.7,30.0,61,48,37,30.38,30.02,4,0,0,0.00
2014-11-27,58.3,48.1,39.6,31.0,28.0,25.0,65,47,30,30.55,30.35,5,0,0,0.00
2014-11-28,68.6,56.2,40.5,53.0,42.6,29.0,70,61,51,30.34,29.96,7,0,0,0.00
2014-11-29,77.0,64.9,54.7,60.0,53.6,47.0,85,68,45,29.97,29.83,10,1,0,0.00
2014-11-30,78.7,69.8,64.3,62.0,60.5,59.0,88,73,53,30.07,29.88,7,1,0,0.00
2014-12-1,66.0,39.8,32.9,62.0,27.7,21.0,86,62,51,30.47,30.07,15,2,0,0.00
2014-12-2,48.2,39.1,31.4,41.0,27.1,21.0,77,63,49,30.46,30.15,6,0,0,0.00
2014-12-3,58.3,53.7,48.4,54.0,49.1,42.0,88,84,78,30.21,30.11,5,0,0,0.00
2014-12-4,64.3,59.8,55.9,59.0,56.2,53.0,92,87,81,30.18,30.02,8,0,0,0.00
2014-12-5,77.1,67.2,57.8,65.0,61.0,53.0,95,81,63,30.18,29.95,4,0,0,0.02
2014-12-6,65.6,57.0,47.6,53.0,48.8,43.0,85,75,56,30.40,30.19,9,1,0,0.02
2014-12-7,54.0,49.7,45.8,47.0,45.2,43.0,93,84,75,30.41,30.26,3,0,0,0.00
2014-12-8,59.0,49.3,43.0,48.0,44.8,41.0,93,85,67,30.36,30.27,4,0,0,0.00
2014-12-9,59.1,47.7,41.0,53.0,44.9,39.0,95,90,73,30.38,30.24,5,0,0,0.01
2014-12-10,55.7,50.4,45.0,48.0,45.7,43.0,93,84,75,30.26,30.13,4,0,0,0.02
2014-12-11,65.1,57.9,52.1,58.0,53.2,48.0,91,84,77,30.20,30.10,2,0,0,0.00
2014-12-12,69.2,62.5,58.0,61.0,58.0,56.0,94,86,74,30.23,30.13,4,0,0,0.01
2014-12-13,69.4,62.6,57.7,59.0,56.6,54.0,90,81,67,30.19,30.02,7,0,0,0.01
2014-12-14,65.3,63.1,59.8,63.0,60.5,57.0,94,91,85,30.02,29.76,8,0,0,0.34
2014-12-15,64.6,57.9,51.1,63.0,41.6,33.0,94,57,39,30.16,29.76,11,1,0,0.35
2014-12-16,51.9,45.7,39.8,35.0,31.5,28.0,72,58,50,30.36,30.16,9,0,0,0.00
2014-12-17,45.6,43.1,40.9,41.0,36.7,33.0,93,79,69,30.30,30.06,4,0,0,0.39
2014-12-18,48.1,45.2,41.2,46.0,43.2,39.0,95,92,87,30.18,30.09,7,0,0,0.40
2014-12-19,48.4,46.6,45.0,46.0,44.2,42.0,93,91,89,30.21,30.11,3,0,0,0.06
2014-12-20,47.6,46.2,44.6,45.0,43.1,42.0,92,89,85,30.26,30.17,2,0,0,0.06
2014-12-21,51.7,49.0,46.6,49.0,45.3,43.0,92,87,82,30.17,29.72,7,0,0,0.00
2014-12-22,64.4,56.8,51.9,53.0,48.2,44.0,90,74,50,29.71,29.54,12,0,0,0.00
2014-12-23,54.3,48.8,43.7,45.0,38.9,30.0,91,70,52,29.93,29.64,9,1,0,0.70
2014-12-24,50.8,44.1,38.8,35.0,33.0,31.0,79,66,52,30.06,29.92,11,1,0,0.70
2014-12-25,61.1,49.3,36.8,43.0,33.4,28.0,77,57,34,30.04,29.91,9,1,0,0.00
2014-12-26,62.9,58.0,50.5,61.0,53.9,43.0,93,86,75,29.96,29.85,5,0,0,0.00
2014-12-27,62.9,42.5,35.3,61.0,37.5,26.0,94,83,70,30.31,29.96,13,2,0,0.02
2014-12-28,48.3,38.6,34.4,28.0,25.9,23.0,76,62,39,30.30,30.14,4,0,0,0.02
2014-12-29,52.5,40.2,31.7,38.0,32.5,27.0,87,75,53,30.26,30.06,7,0,0,0.00
2014-12-30,45.3,41.5,34.6,39.0,31.6,28.0,91,69,53,30.54,30.26,7,1,0,0.00
2014-12-31,38.0,34.4,32.6,28.0,25.6,24.0,75,70,65,30.63,30.41,6,0,0,0.00
2015-1-1,36.5,34.3,32.0,35.0,31.3,25.0,93,89,69,30.42,30.21,5,0,0,0.58
2015-1-2,41.0,39.1,36.5,39.0,37.6,35.0,94,94,93,30.23,29.98,3,0,0,0.47